TimeCDT,TemperatureF,Dew PointF,Humidity,Sea Level PressureIn,VisibilityMPH,Wind Direction,Wind SpeedMPH,Gust SpeedMPH,PrecipitationIn,Events,Conditions,WindDirDegrees,DateUTC
12:15 AM,50.0,37.4,62,29.90,10.0,West,21.9,29.9,N/A,,Clear,280,2012-10-04 05:15:00
12:34 AM,50.0,39.2,66,29.88,10.0,WNW,20.7,35.7,N/A,,Clear,290,2012-10-04 05:34:00
12:54 AM,50.0,39.2,66,29.90,7.0,WNW,32.2,40.3,N/A,,Scattered Clouds,290,2012-10-04 05:54:00
1:15 AM,48.2,37.4,66,29.92,7.0,WNW,32.2,43.7,N/A,,Mostly Cloudy,290,2012-10-04 06:15:00
1:34 AM,46.4,37.4,71,29.94,7.0,WNW,29.9,42.6,N/A,,Overcast,290,2012-10-04 06:34:00
1:54 AM,46.4,37.4,71,29.96,7.0,WNW,38.0,46.0,N/A,,Mostly Cloudy,290,2012-10-04 06:54:00
2:14 AM,44.6,37.4,76,30.00,10.0,WNW,26.5,48.3,N/A,,Scattered Clouds,290,2012-10-04 07:14:00
2:34 AM,44.6,37.4,76,29.98,10.0,WNW,25.3,34.5,N/A,,Mostly Cloudy,290,2012-10-04 07:34:00
2:55 AM,44.6,37.4,76,29.98,10.0,WNW,17.3,32.2,N/A,,Overcast,300,2012-10-04 07:55:00
3:14 AM,44.6,35.6,71,30.00,10.0,WNW,24.2,31.1,N/A,,Overcast,300,2012-10-04 08:14:00
3:34 AM,44.6,35.6,71,30.00,10.0,WNW,24.2,32.2,N/A,,Overcast,300,2012-10-04 08:34:00
3:55 AM,42.8,35.6,76,30.02,10.0,WNW,27.6,33.4,N/A,,Overcast,290,2012-10-04 08:55:00
4:14 AM,41.0,33.8,76,30.03,10.0,WNW,25.3,34.5,N/A,,Overcast,290,2012-10-04 09:14:00
4:34 AM,41.0,33.8,76,30.02,10.0,WNW,25.3,32.2,N/A,,Overcast,300,2012-10-04 09:34:00
4:55 AM,41.0,33.8,76,30.02,10.0,WNW,16.1,27.6,N/A,,Overcast,300,2012-10-04 09:55:00
5:14 AM,41.0,33.8,76,30.04,10.0,WNW,20.7,27.6,N/A,,Mostly Cloudy,300,2012-10-04 10:14:00
5:55 AM,41.0,33.8,76,30.06,10.0,NW,17.3,29.9,N/A,,Mostly Cloudy,310,2012-10-04 10:55:00
6:14 AM,41.0,33.8,76,30.07,10.0,NW,17.3,25.3,N/A,,Overcast,310,2012-10-04 11:14:00
6:34 AM,41.0,32.0,70,30.07,10.0,NW,19.6,29.9,N/A,,Overcast,310,2012-10-04 11:34:00
6:55 AM,39.2,33.8,81,30.08,5.0,NW,24.2,33.4,N/A,,Haze,310,2012-10-04 11:55:00
7:14 AM,39.2,32.0,75,30.09,10.0,NW,24.2,32.2,N/A,,Overcast,310,2012-10-04 12:14:00
7:39 AM,39.2,32.0,75,30.09,10.0,NW,24.2,29.9,N/A,,Overcast,310,2012-10-04 12:39:00
7:55 AM,41.0,32.0,70,30.10,10.0,NW,23.0,36.8,N/A,,Overcast,310,2012-10-04 12:55:00
8:14 AM,41.0,32.0,70,30.11,10.0,NW,23.0,32.2,N/A,,Overcast,310,2012-10-04 13:14:00
8:34 AM,41.0,32.0,70,30.12,10.0,NW,26.5,36.8,N/A,,Overcast,320,2012-10-04 13:34:00
8:55 AM,41.0,32.0,70,30.14,10.0,NW,25.3,35.7,N/A,,Overcast,310,2012-10-04 13:55:00
9:14 AM,41.0,32.0,70,30.14,10.0,NW,23.0,33.4,N/A,,Overcast,310,2012-10-04 14:14:00
9:34 AM,41.0,32.0,70,30.15,10.0,NW,24.2,33.4,N/A,,Overcast,320,2012-10-04 14:34:00
9:54 AM,42.8,32.0,66,30.15,10.0,NW,21.9,29.9,N/A,,Overcast,320,2012-10-04 14:54:00
10:14 AM,42.8,32.0,66,30.16,10.0,NW,24.2,32.2,N/A,,Overcast,310,2012-10-04 15:14:00
10:34 AM,42.8,32.0,66,30.17,10.0,NNW,24.2,34.5,N/A,,Overcast,330,2012-10-04 15:34:00
10:54 AM,42.8,32.0,66,30.17,10.0,NW,19.6,31.1,N/A,,Overcast,310,2012-10-04 15:54:00
11:14 AM,44.6,30.2,57,30.18,10.0,NW,24.2,35.7,N/A,,Overcast,320,2012-10-04 16:14:00
11:34 AM,44.6,30.2,57,30.18,10.0,NW,23.0,32.2,N/A,,Mostly Cloudy,310,2012-10-04 16:34:00
11:54 AM,42.8,30.2,61,30.20,10.0,NW,20.7,35.7,N/A,,Overcast,310,2012-10-04 16:54:00
12:14 PM,44.6,30.2,57,30.21,10.0,NW,18.4,29.9,N/A,,Overcast,320,2012-10-04 17:14:00
12:34 PM,44.6,30.2,57,30.21,10.0,NW,21.9,33.4,N/A,,Overcast,320,2012-10-04 17:34:00
12:54 PM,44.6,30.2,57,30.21,10.0,NW,24.2,33.4,N/A,,Overcast,310,2012-10-04 17:54:00
1:14 PM,46.4,30.2,53,30.21,10.0,NW,21.9,31.1,N/A,,Mostly Cloudy,320,2012-10-04 18:14:00
1:34 PM,46.4,30.2,53,30.21,10.0,NW,24.2,34.5,N/A,,Mostly Cloudy,310,2012-10-04 18:34:00
1:54 PM,48.2,30.2,50,30.21,10.0,NW,21.9,32.2,N/A,,Scattered Clouds,320,2012-10-04 18:54:00
2:13 PM,48.2,30.2,50,30.20,10.0,NW,21.9,29.9,N/A,,Mostly Cloudy,320,2012-10-04 19:13:00
2:34 PM,50.0,30.2,47,30.21,10.0,NW,21.9,32.2,N/A,,Mostly Cloudy,310,2012-10-04 19:34:00
2:54 PM,50.0,28.4,43,30.22,10.0,NW,20.7,28.8,N/A,,Mostly Cloudy,320,2012-10-04 19:54:00
3:14 PM,48.2,30.2,50,30.22,10.0,WNW,23.0,28.8,N/A,,Overcast,300,2012-10-04 20:14:00
3:34 PM,48.2,28.4,46,30.22,10.0,NW,17.3,26.5,N/A,,Overcast,320,2012-10-04 20:34:00
3:54 PM,48.2,28.4,46,30.21,10.0,NNW,17.3,27.6,N/A,,Mostly Cloudy,330,2012-10-04 20:54:00
4:14 PM,48.2,28.4,46,30.22,10.0,NW,18.4,25.3,N/A,,Mostly Cloudy,320,2012-10-04 21:14:00
4:34 PM,50.0,28.4,43,30.23,10.0,NW,20.7,26.5,N/A,,Mostly Cloudy,320,2012-10-04 21:34:00
4:54 PM,48.2,28.4,46,30.23,10.0,NNW,16.1,25.3,N/A,,Mostly Cloudy,330,2012-10-04 21:54:00
5:14 PM,48.2,28.4,46,30.24,10.0,NW,18.4,29.9,N/A,,Scattered Clouds,320,2012-10-04 22:14:00
5:34 PM,46.4,28.4,50,30.25,10.0,NW,18.4,24.2,N/A,,Mostly Cloudy,310,2012-10-04 22:34:00
5:54 PM,44.6,28.4,53,30.25,10.0,NW,12.7,25.3,N/A,,Overcast,320,2012-10-04 22:54:00
6:14 PM,44.6,28.4,53,30.26,10.0,NW,18.4,24.2,N/A,,Overcast,320,2012-10-04 23:14:00
6:34 PM,44.6,28.4,53,30.26,10.0,NNW,16.1,24.2,N/A,,Mostly Cloudy,330,2012-10-04 23:34:00
6:54 PM,44.6,28.4,53,30.26,10.0,NW,15.0,23.0,N/A,,Overcast,320,2012-10-04 23:54:00
7:14 PM,44.6,28.4,53,30.27,10.0,NW,15.0,20.7,N/A,,Overcast,310,2012-10-05 00:14:00
7:34 PM,44.6,28.4,53,30.27,10.0,NW,11.5,20.7,N/A,,Overcast,320,2012-10-05 00:34:00
7:54 PM,44.6,28.4,53,30.28,10.0,NW,13.8,21.9,N/A,,Overcast,320,2012-10-05 00:54:00
8:14 PM,44.6,28.4,53,30.28,10.0,NNW,10.4,23.0,N/A,,Overcast,330,2012-10-05 01:14:00
8:34 PM,44.6,26.6,49,30.28,10.0,NNW,9.2,16.1,N/A,,Overcast,330,2012-10-05 01:34:00
8:55 PM,42.8,28.4,57,30.28,10.0,NW,10.4,-,N/A,,Overcast,320,2012-10-05 01:55:00
9:14 PM,42.8,28.4,57,30.29,10.0,NW,12.7,17.3,N/A,,Overcast,320,2012-10-05 02:14:00
9:34 PM,42.8,26.6,53,30.28,10.0,NW,12.7,17.3,N/A,,Overcast,320,2012-10-05 02:34:00
9:54 PM,42.8,28.4,57,30.28,10.0,NW,9.2,-,N/A,,Overcast,310,2012-10-05 02:54:00
10:14 PM,42.8,26.6,53,30.28,10.0,NW,11.5,-,N/A,,Overcast,310,2012-10-05 03:14:00
10:34 PM,42.8,26.6,53,30.28,10.0,NW,10.4,-,N/A,,Mostly Cloudy,320,2012-10-05 03:34:00
10:54 PM,41.0,26.6,57,30.27,10.0,NW,9.2,-,N/A,,Scattered Clouds,320,2012-10-05 03:54:00
11:14 PM,39.2,26.6,61,30.27,10.0,NW,9.2,-,N/A,,Clear,320,2012-10-05 04:14:00
11:34 PM,39.2,26.6,61,30.27,10.0,NW,10.4,-,N/A,,Clear,320,2012-10-05 04:34:00
11:54 PM,37.4,26.6,65,30.28,10.0,NW,6.9,-,N/A,,Clear,310,2012-10-05 04:54:00